Terminal Aerodrome Forecast
Issued by NWS Bismarck, ND

Home | Current Version | Previous Version | Text Only | Print | Product List | Glossary Off
Versions: 1 2 3 4 5 6 7 8 9 10 11 12 13 14 15 16 17 18 19 20

367
FTUS43 KBIS 211824 RRA
TAFISN
TAF
KISN 211824Z 2118/2218 32020G28KT P6SM FEW070 FEW250
     FM220100 33013KT P6SM FEW120 FEW200
     FM220300 34005KT P6SM FEW120 FEW200
     FM221100 30006KT P6SM FEW060 FEW200
     FM221400 29011KT P6SM FEW060 FEW200
     FM221600 29018G26KT P6SM FEW070 FEW200=

USA.gov is the U.S. government's official web portal to all federal, state and local government web resources and services.